Time;durP1;ratioP1;P1;durP2;ratioP2;P2;SDS_P1;SDS_P2;PMS_P1;PMS_P2;Temp;Humidity;BMP_temperature;BMP_pressure;BME280_temperature;BME280_humidity;BME280_pressure;Samples;Min_cycle;Max_cycle;Signal;HPM_P1;HPM_P2
2021/09/10 00:01:44;;;;;;;7.63;6.93;;;17.30;99.90;;;;;;5039042;28;20217;-85
2021/09/10 00:04:15;;;;;;;6.47;5.90;;;17.30;99.90;;;;;;5040220;28;20186;-83
2021/09/10 00:06:41;;;;;;;8.33;6.63;;;17.30;99.90;;;;;;5039084;28;20197;-85
2021/09/10 00:09:09;;;;;;;8.00;6.93;;;17.30;99.90;;;;;;5039713;28;20660;-83
2021/09/10 00:11:35;;;;;;;7.20;6.60;;;17.30;99.90;;;;;;5040257;28;20174;-84
2021/09/10 00:14:00;;;;;;;7.77;6.97;;;17.30;99.90;;;;;;5038201;28;20722;-84
2021/09/10 00:16:38;;;;;;;7.33;6.60;;;17.30;99.90;;;;;;5038341;28;20662;-83
2021/09/10 00:19:07;;;;;;;6.80;6.20;;;17.20;99.90;;;;;;5039709;28;20178;-85
2021/09/10 00:21:32;;;;;;;6.80;6.30;;;17.30;99.90;;;;;;5040593;28;20178;-81
2021/09/10 00:23:58;;;;;;;9.87;6.70;;;17.20;99.90;;;;;;5038396;28;20663;-83
2021/09/10 00:26:24;;;;;;;6.90;6.40;;;17.20;99.90;;;;;;5033759;28;20187;-85
2021/09/10 00:28:49;;;;;;;8.93;7.10;;;17.20;99.90;;;;;;5027502;28;20177;-84
2021/09/10 00:31:15;;;;;;;7.40;6.77;;;17.20;99.90;;;;;;5037222;28;20189;-84
2021/09/10 00:34:27;;;;;;;7.20;6.60;;;17.20;99.90;;;;;;5034553;28;20644;-81
2021/09/10 00:36:56;;;;;;;7.17;6.57;;;17.20;99.90;;;;;;5028764;28;20692;-83
2021/09/10 00:39:22;;;;;;;8.50;7.70;;;17.30;99.90;;;;;;5037767;28;20258;-82
2021/09/10 00:41:48;;;;;;;7.50;6.80;;;17.20;99.90;;;;;;5037893;28;20170;-83
2021/09/10 00:44:17;;;;;;;7.63;7.03;;;17.20;99.90;;;;;;5032704;28;20197;-84
2021/09/10 00:46:43;;;;;;;7.30;6.70;;;17.30;99.90;;;;;;5036393;28;20198;-83
2021/09/10 00:49:09;;;;;;;7.03;6.47;;;17.20;99.90;;;;;;5038446;28;20192;-83
2021/09/10 00:51:41;;;;;;;7.43;6.70;;;17.30;99.90;;;;;;5038589;28;20177;-82
2021/09/10 00:54:07;;;;;;;7.67;6.97;;;17.20;99.90;;;;;;5038633;28;20200;-83
2021/09/10 00:56:53;;;;;;;8.77;7.33;;;17.10;99.90;;;;;;5036422;28;20711;-83
2021/09/10 00:59:19;;;;;;;11.20;7.10;;;17.20;99.90;;;;;;5037989;28;20547;-83
2021/09/10 01:01:48;;;;;;;7.00;6.30;;;17.20;99.90;;;;;;5038212;28;20180;-81
2021/09/10 01:07:29;;;;;;;8.40;7.60;;;17.20;99.90;;;;;;4991708;28;20212;-83
2021/09/10 01:10:00;;;;;;;7.60;7.00;;;17.20;99.90;;;;;;4997503;28;20193;-83
2021/09/10 01:12:26;;;;;;;8.20;7.50;;;17.20;99.90;;;;;;4997765;28;20254;-85
2021/09/10 01:17:52;;;;;;;8.13;7.47;;;17.20;99.90;;;;;;5059656;22;20253;-83
2021/09/10 01:20:18;;;;;;;8.10;7.30;;;17.20;99.90;;;;;;5014340;28;20174;-81
2021/09/10 01:22:44;;;;;;;7.90;7.27;;;17.10;99.90;;;;;;5016360;28;20237;-85
2021/09/10 01:25:14;;;;;;;7.47;6.80;;;17.10;99.90;;;;;;5015523;28;20684;-81
2021/09/10 01:28:00;;;;;;;7.13;6.53;;;17.10;99.90;;;;;;5015722;28;20548;-83
2021/09/10 01:30:43;;;;;;;8.20;7.40;;;17.10;99.90;;;;;;5013739;28;20664;-81
2021/09/10 01:33:38;;;;;;;7.23;6.73;;;17.10;99.90;;;;;;5013301;28;20247;-81
2021/09/10 01:36:04;;;;;;;7.70;7.00;;;17.10;99.90;;;;;;4977237;28;20576;-84
2021/09/10 01:39:10;;;;;;;7.37;6.80;;;17.10;99.90;;;;;;4974167;28;20218;-82
2021/09/10 01:41:47;;;;;;;7.63;7.03;;;17.10;99.90;;;;;;4944580;28;20523;-82
2021/09/10 01:44:57;;;;;;;8.07;7.30;;;17.10;99.90;;;;;;4978915;28;20247;-82
2021/09/10 01:47:25;;;;;;;7.90;7.23;;;17.10;99.90;;;;;;4993312;28;20278;-84
2021/09/10 01:49:51;;;;;;;8.10;7.37;;;17.10;99.90;;;;;;5015327;28;20174;-85
2021/09/10 01:52:17;;;;;;;8.20;7.40;;;17.00;99.90;;;;;;5014283;28;20171;-84
2021/09/10 01:54:46;;;;;;;7.73;7.07;;;17.00;99.90;;;;;;5015255;28;20237;-83
2021/09/10 01:57:11;;;;;;;7.57;6.93;;;17.10;99.90;;;;;;5016009;28;20194;-84
2021/09/10 01:59:37;;;;;;;7.93;7.30;;;17.10;99.90;;;;;;4997998;28;20182;-83
2021/09/10 02:02:03;;;;;;;8.27;7.57;;;17.00;99.90;;;;;;5002499;28;20178;-84
2021/09/10 02:04:28;;;;;;;8.17;6.87;;;17.00;99.90;;;;;;5011403;28;20182;-85
2021/09/10 02:06:54;;;;;;;8.47;7.67;;;17.00;99.90;;;;;;5008174;28;20586;-84
2021/09/10 02:09:22;;;;;;;7.07;6.57;;;17.10;99.90;;;;;;5015100;28;20592;-82
2021/09/10 02:11:57;;;;;;;8.37;7.57;;;17.10;99.90;;;;;;5024110;28;20178;-81
2021/09/10 02:14:32;;;;;;;7.67;6.97;;;17.10;99.90;;;;;;5014983;28;20221;-81
2021/09/10 02:17:03;;;;;;;7.87;7.17;;;17.10;99.90;;;;;;5025565;28;20340;-82
2021/09/10 02:19:32;;;;;;;7.60;6.87;;;17.00;99.90;;;;;;5014112;28;20206;-81
2021/09/10 02:22:03;;;;;;;7.43;6.93;;;17.10;99.90;;;;;;5013500;28;20167;-81
2021/09/10 02:24:29;;;;;;;7.80;7.03;;;17.10;99.90;;;;;;5013703;28;20178;-84
2021/09/10 02:26:54;;;;;;;8.27;7.60;;;17.10;99.90;;;;;;5057888;23;20232;-86
2021/09/10 02:29:29;;;;;;;7.67;7.07;;;17.10;99.90;;;;;;5056232;28;20177;-82
2021/09/10 02:32:03;;;;;;;7.63;7.03;;;17.10;99.90;;;;;;5056869;28;20196;-84
2021/09/10 02:34:32;;;;;;;8.10;7.30;;;17.10;99.90;;;;;;5047146;28;20228;-81
2021/09/10 02:36:57;;;;;;;7.70;7.10;;;17.10;99.90;;;;;;5052977;28;20196;-85
2021/09/10 02:39:23;;;;;;;7.77;7.10;;;17.10;99.90;;;;;;5056222;28;20708;-85
2021/09/10 02:41:48;;;;;;;7.67;6.93;;;16.90;99.90;;;;;;5055058;28;20183;-83
2021/09/10 02:44:14;;;;;;;7.83;7.23;;;16.90;99.90;;;;;;5045766;28;20558;-85
2021/09/10 02:46:40;;;;;;;7.47;6.97;;;16.90;99.90;;;;;;5049696;28;20237;-85
2021/09/10 02:49:06;;;;;;;8.30;7.50;;;16.90;99.90;;;;;;5053055;28;20173;-84
2021/09/10 02:51:32;;;;;;;7.70;7.00;;;16.90;99.90;;;;;;5037730;28;20173;-83
2021/09/10 02:53:58;;;;;;;8.70;7.90;;;17.00;99.90;;;;;;5049706;28;20181;-84
2021/09/10 02:56:28;;;;;;;7.40;6.80;;;17.00;99.90;;;;;;5059591;28;20220;-83
2021/09/10 02:58:54;;;;;;;7.43;6.87;;;17.00;99.90;;;;;;5060669;28;20180;-85
2021/09/10 03:01:20;;;;;;;7.40;6.57;;;17.00;99.90;;;;;;5059985;28;20260;-85
2021/09/10 03:03:49;;;;;;;7.27;6.77;;;17.00;99.90;;;;;;5060461;28;20647;-84
2021/09/10 03:06:14;;;;;;;7.93;7.33;;;16.90;99.90;;;;;;5058801;28;20193;-86
2021/09/10 03:08:42;;;;;;;7.60;7.00;;;16.90;99.90;;;;;;5058485;28;20555;-83
2021/09/10 03:11:31;;;;;;;7.87;7.03;;;16.90;99.90;;;;;;5043833;28;20174;-81
2021/09/10 03:14:32;;;;;;;8.27;7.47;;;17.00;99.90;;;;;;4999907;28;20274;-81
2021/09/10 03:19:27;;;;;;;8.60;7.93;;;16.90;99.90;;;;;;4994372;28;20564;-84
2021/09/10 03:21:55;;;;;;;7.93;7.33;;;16.90;99.90;;;;;;5000305;28;20175;-83
2021/09/10 03:24:44;;;;;;;8.03;7.23;;;17.00;99.90;;;;;;4999761;28;20187;-81
2021/09/10 03:27:19;;;;;;;7.80;7.20;;;17.00;99.90;;;;;;4982720;28;20210;-83
2021/09/10 03:29:54;;;;;;;7.77;7.13;;;17.00;99.90;;;;;;5001107;28;20266;-84
2021/09/10 03:36:06;;;;;;;9.53;7.37;;;16.90;99.90;;;;;;4976341;28;20222;-81
2021/09/10 03:42:03;;;;;;;8.23;7.43;;;16.90;99.90;;;;;;4888159;29;20188;-83
2021/09/10 03:44:35;;;;;;;8.10;7.50;;;16.90;99.90;;;;;;4944155;29;20707;-81
2021/09/10 03:47:05;;;;;;;7.47;6.87;;;16.90;99.90;;;;;;4944203;29;20816;-81
2021/09/10 03:49:34;;;;;;;8.23;7.50;;;16.90;99.90;;;;;;4957873;28;20192;-81
2021/09/10 03:52:04;;;;;;;8.70;8.00;;;16.90;99.90;;;;;;4997133;28;20176;-81
2021/09/10 03:54:32;;;;;;;7.80;7.20;;;16.90;99.90;;;;;;4962459;28;20202;-83
2021/09/10 03:57:01;;;;;;;8.97;8.07;;;16.90;99.90;;;;;;5000321;28;20222;-84
2021/09/10 03:59:29;;;;;;;8.37;7.67;;;16.90;99.90;;;;;;4982510;28;20172;-82
2021/09/10 04:02:04;;;;;;;8.67;7.73;;;17.00;99.90;;;;;;4960966;28;20188;-84
2021/09/10 04:04:32;;;;;;;7.93;7.23;;;17.00;99.90;;;;;;4964226;28;20607;-81
2021/09/10 04:07:01;;;;;;;9.43;7.47;;;16.90;99.90;;;;;;4980648;28;20202;-83
2021/09/10 04:09:30;;;;;;;7.50;6.90;;;16.90;99.90;;;;;;4981213;28;20195;-83
2021/09/10 04:11:55;;;;;;;8.13;7.53;;;16.90;99.90;;;;;;4999194;28;20264;-84
2021/09/10 04:14:28;;;;;;;7.73;7.03;;;16.90;99.90;;;;;;4999945;28;20229;-83
2021/09/10 04:16:56;;;;;;;8.73;7.63;;;16.90;99.90;;;;;;4988409;28;20213;-82
2021/09/10 04:20:03;;;;;;;8.37;7.70;;;16.80;99.90;;;;;;4973579;28;20201;-81
2021/09/10 04:25:23;;;;;;;8.73;8.03;;;16.80;99.90;;;;;;4927913;29;20561;-85
2021/09/10 04:27:51;;;;;;;8.07;7.47;;;16.80;99.90;;;;;;4989387;28;20254;-81
2021/09/10 04:30:40;;;;;;;8.43;7.83;;;16.80;99.90;;;;;;4968363;28;20238;-82
2021/09/10 04:36:43;;;;;;;8.67;7.87;;;16.90;99.90;;;;;;4964921;28;20216;-81
2021/09/10 04:39:09;;;;;;;8.57;7.87;;;16.90;99.90;;;;;;4983231;28;20191;-84
2021/09/10 04:41:34;;;;;;;8.40;7.80;;;16.80;99.90;;;;;;4981889;28;20245;-86
2021/09/10 04:44:00;;;;;;;8.87;7.97;;;16.80;99.90;;;;;;4999876;28;20193;-84
2021/09/10 04:46:26;;;;;;;8.20;7.60;;;16.80;99.90;;;;;;4999329;28;20205;-82
2021/09/10 04:48:51;;;;;;;8.80;7.87;;;16.80;99.90;;;;;;4986365;28;20247;-85
2021/09/10 04:51:17;;;;;;;8.57;7.93;;;16.80;99.90;;;;;;4999480;28;20187;-84
2021/09/10 04:53:42;;;;;;;9.00;8.20;;;16.80;99.90;;;;;;4982735;28;20183;-84
2021/09/10 04:56:10;;;;;;;8.67;7.93;;;16.80;99.90;;;;;;5004289;28;20215;-85
2021/09/10 04:58:36;;;;;;;8.53;7.90;;;16.80;99.90;;;;;;4979643;28;20176;-85
2021/09/10 05:01:32;;;;;;;;;;;;;;;;;;;;;
2021/09/10 05:04:05;;;;;;;8.20;7.60;;;16.90;99.90;;;;;;5001195;28;20239;-82
2021/09/10 05:06:54;;;;;;;9.40;8.27;;;16.90;99.90;;;;;;5000306;28;20274;-84
2021/09/10 05:09:20;;;;;;;9.60;8.50;;;16.80;99.90;;;;;;4978093;28;20198;-86
2021/09/10 05:11:47;;;;;;;8.33;7.73;;;16.90;99.90;;;;;;4980769;28;20198;-85
2021/09/10 05:14:14;;;;;;;8.43;7.73;;;16.80;99.90;;;;;;5000187;28;20187;-85
2021/09/10 05:16:44;;;;;;;8.97;8.27;;;16.90;99.90;;;;;;4983717;28;20195;-84
2021/09/10 05:19:10;;;;;;;9.07;7.63;;;16.80;99.90;;;;;;4979506;28;20231;-86
2021/09/10 05:21:45;;;;;;;9.07;8.27;;;16.80;99.90;;;;;;4998088;28;20584;-82
2021/09/10 05:24:10;;;;;;;10.30;9.23;;;16.80;99.90;;;;;;4984176;28;20240;-85
2021/09/10 05:26:36;;;;;;;9.40;8.57;;;16.80;99.90;;;;;;4968351;28;20218;-85
2021/09/10 05:29:02;;;;;;;8.40;7.70;;;16.90;99.90;;;;;;4962296;28;20271;-85
2021/09/10 05:31:28;;;;;;;8.70;7.87;;;16.80;99.90;;;;;;4965722;28;20176;-85
2021/09/10 05:33:53;;;;;;;8.80;8.17;;;16.80;99.90;;;;;;4963874;28;20599;-83
2021/09/10 05:36:28;;;;;;;9.10;8.30;;;16.80;99.90;;;;;;4965672;28;20210;-83
2021/09/10 05:38:54;;;;;;;9.10;8.30;;;16.90;99.90;;;;;;4983861;28;20175;-83
2021/09/10 05:44:34;;;;;;;8.87;8.03;;;16.90;99.90;;;;;;4971492;28;20199;-83
2021/09/10 05:47:02;;;;;;;8.63;7.93;;;16.90;99.90;;;;;;4980595;28;20205;-84
2021/09/10 05:49:28;;;;;;;9.00;8.20;;;16.90;99.90;;;;;;4988718;28;20311;-86
2021/09/10 05:51:53;;;;;;;8.77;8.13;;;16.90;99.90;;;;;;5002460;28;20207;-86
2021/09/10 05:54:25;;;;;;;9.40;8.50;;;16.90;99.90;;;;;;4999184;28;20709;-82
2021/09/10 05:56:50;;;;;;;10.43;8.03;;;17.00;99.90;;;;;;5038689;22;20264;-85
2021/09/10 05:59:16;;;;;;;9.43;8.63;;;17.00;99.90;;;;;;5043538;28;20173;-85
2021/09/10 06:01:44;;;;;;;10.07;8.23;;;16.90;99.90;;;;;;5044477;28;20283;-83
2021/09/10 06:04:10;;;;;;;8.63;7.93;;;16.90;99.90;;;;;;5042384;28;20196;-85
2021/09/10 06:06:39;;;;;;;8.93;8.23;;;16.90;99.90;;;;;;5056907;28;20574;-85
2021/09/10 06:09:04;;;;;;;12.37;8.27;;;16.80;99.90;;;;;;5057253;28;20188;-85
2021/09/10 06:11:30;;;;;;;8.93;8.13;;;16.80;99.90;;;;;;5046357;28;20178;-85
2021/09/10 06:13:59;;;;;;;9.67;8.47;;;16.90;99.90;;;;;;5056491;28;20174;-86
2021/09/10 06:16:25;;;;;;;12.13;8.97;;;16.90;99.90;;;;;;5042571;28;20582;-85
2021/09/10 06:18:51;;;;;;;10.27;9.27;;;16.90;99.90;;;;;;5038892;28;20528;-85
2021/09/10 06:21:16;;;;;;;10.00;9.10;;;16.90;99.90;;;;;;5041070;28;20226;-84
2021/09/10 06:23:42;;;;;;;9.13;8.33;;;16.90;99.90;;;;;;5047198;28;20174;-82
2021/09/10 06:26:35;;;;;;;9.40;8.60;;;16.90;99.90;;;;;;5046752;28;20201;-81
2021/09/10 06:29:11;;;;;;;10.00;9.03;;;17.00;99.90;;;;;;5017949;28;20186;-84
2021/09/10 06:31:39;;;;;;;11.20;10.10;;;17.00;99.90;;;;;;5030386;28;20242;-82
2021/09/10 06:34:31;;;;;;;9.97;9.07;;;17.00;99.90;;;;;;5041873;28;20188;-81
2021/09/10 06:36:59;;;;;;;10.97;9.90;;;17.00;99.90;;;;;;5033749;28;20214;-84
2021/09/10 06:39:25;;;;;;;10.00;9.10;;;17.10;99.90;;;;;;5036440;28;20231;-85
2021/09/10 06:41:51;;;;;;;10.07;9.17;;;17.10;99.90;;;;;;5060098;28;20181;-86
2021/09/10 06:44:16;;;;;;;11.00;10.00;;;17.10;99.90;;;;;;5058402;28;20184;-86
2021/09/10 06:46:42;;;;;;;11.70;10.17;;;17.10;99.90;;;;;;5044365;28;20204;-85
2021/09/10 06:49:08;;;;;;;10.57;9.77;;;17.20;99.90;;;;;;5041234;28;20177;-86
2021/09/10 06:51:33;;;;;;;10.83;9.83;;;17.20;99.90;;;;;;5045647;28;20636;-86
2021/09/10 06:53:59;;;;;;;11.10;10.10;;;17.30;99.90;;;;;;5057424;28;20181;-85
2021/09/10 06:56:25;;;;;;;16.53;10.17;;;17.30;99.90;;;;;;5059195;28;20304;-84
2021/09/10 06:58:51;;;;;;;11.27;10.33;;;17.30;99.90;;;;;;5053335;28;20335;-85
2021/09/10 07:01:17;;;;;;;15.23;11.40;;;17.30;99.90;;;;;;5047409;28;20550;-86
2021/09/10 07:03:42;;;;;;;12.07;10.90;;;17.30;99.90;;;;;;5057228;28;20277;-84
2021/09/10 07:06:08;;;;;;;12.77;11.63;;;17.40;99.90;;;;;;5058203;28;20205;-86
2021/09/10 07:09:21;;;;;;;15.10;11.80;;;17.40;99.90;;;;;;5055181;28;20189;-82
2021/09/10 07:11:56;;;;;;;13.73;12.33;;;17.50;99.90;;;;;;5034669;28;20182;-80
2021/09/10 07:14:40;;;;;;;15.47;12.57;;;17.50;99.90;;;;;;5036958;28;20221;-81
2021/09/10 07:17:06;;;;;;;13.77;12.33;;;17.60;99.90;;;;;;5048192;28;20204;-82
2021/09/10 07:19:31;;;;;;;13.10;11.90;;;17.60;99.90;;;;;;5055023;28;20632;-82
2021/09/10 07:21:57;;;;;;;16.13;12.77;;;17.70;99.90;;;;;;5054388;28;20182;-79
2021/09/10 07:24:34;;;;;;;12.80;11.73;;;17.70;99.90;;;;;;5054506;28;20182;-79
2021/09/10 07:27:05;;;;;;;14.17;12.27;;;17.70;99.90;;;;;;5054501;28;20200;-80
2021/09/10 07:29:34;;;;;;;12.93;11.83;;;17.70;99.90;;;;;;5046300;28;20178;-84
2021/09/10 07:32:08;;;;;;;14.73;12.70;;;17.80;99.90;;;;;;5056490;28;20185;-79
2021/09/10 07:34:34;;;;;;;13.10;11.80;;;17.80;99.90;;;;;;5055542;28;20208;-80
2021/09/10 07:36:59;;;;;;;14.37;12.97;;;17.90;99.90;;;;;;5080223;22;20230;-82
2021/09/10 07:39:35;;;;;;;14.20;12.80;;;18.00;99.90;;;;;;5035248;28;20175;-79
2021/09/10 07:42:00;;;;;;;14.23;12.67;;;18.00;99.90;;;;;;5037807;28;20530;-81
2021/09/10 07:44:31;;;;;;;14.57;13.03;;;18.10;99.90;;;;;;5038364;28;20250;-79
2021/09/10 07:46:57;;;;;;;14.37;12.60;;;18.10;99.90;;;;;;5037400;28;20213;-84
2021/09/10 07:49:33;;;;;;;14.00;12.73;;;18.20;99.90;;;;;;5039869;28;20175;-80
2021/09/10 07:52:08;;;;;;;15.30;13.70;;;18.20;99.90;;;;;;5038122;28;20174;-80
2021/09/10 07:54:37;;;;;;;15.73;13.97;;;18.20;99.90;;;;;;5039249;28;20209;-79
2021/09/10 07:57:05;;;;;;;13.43;12.10;;;18.20;99.90;;;;;;5038956;28;20195;-80
2021/09/10 07:59:31;;;;;;;17.47;12.80;;;18.20;99.90;;;;;;5038932;28;20229;-79
2021/09/10 08:01:56;;;;;;;14.13;12.73;;;18.20;99.90;;;;;;5037917;28;20180;-82
2021/09/10 08:04:22;;;;;;;14.60;12.33;;;18.20;99.90;;;;;;5038667;28;20167;-79
2021/09/10 08:06:48;;;;;;;14.20;12.10;;;18.30;99.90;;;;;;5066633;22;20231;-83
2021/09/10 08:09:17;;;;;;;14.97;13.57;;;18.30;99.90;;;;;;5040405;28;20247;-81
2021/09/10 08:11:45;;;;;;;15.57;13.97;;;18.30;99.90;;;;;;5011339;28;20182;-80
2021/09/10 08:17:06;;;;;;;17.40;14.00;;;18.30;99.90;;;;;;5014558;22;20237;-80
2021/09/10 08:19:35;;;;;;;15.83;14.33;;;18.30;99.90;;;;;;5058110;28;20607;-80
2021/09/10 08:22:09;;;;;;;15.63;13.97;;;18.30;99.90;;;;;;5059129;28;20249;-80
2021/09/10 08:24:35;;;;;;;15.00;12.97;;;18.30;99.90;;;;;;5057517;28;20191;-82
2021/09/10 08:27:06;;;;;;;13.57;12.07;;;18.40;99.90;;;;;;5058666;28;20281;-80
2021/09/10 08:29:31;;;;;;;15.13;12.47;;;18.50;99.90;;;;;;5050461;28;20261;-80
2021/09/10 08:31:57;;;;;;;13.93;12.57;;;18.50;99.90;;;;;;5065154;28;20209;-84
2021/09/10 08:34:25;;;;;;;17.77;13.97;;;18.50;99.90;;;;;;5066695;28;20196;-79
2021/09/10 08:36:51;;;;;;;14.67;13.17;;;18.50;99.90;;;;;;5072548;22;20230;-80
2021/09/10 08:39:37;;;;;;;17.40;13.27;;;18.50;99.90;;;;;;5033736;28;20175;-80
2021/09/10 08:42:19;;;;;;;15.03;12.63;;;18.40;99.90;;;;;;5039250;28;20171;-80
2021/09/10 08:44:45;;;;;;;16.00;14.33;;;18.50;99.90;;;;;;5033379;28;20180;-84
2021/09/10 08:47:13;;;;;;;14.90;13.50;;;18.50;99.90;;;;;;5036810;28;20202;-84
2021/09/10 08:49:39;;;;;;;21.97;15.13;;;18.50;99.90;;;;;;5040408;28;20547;-84
2021/09/10 08:52:05;;;;;;;15.97;13.90;;;18.50;99.90;;;;;;5038406;28;20189;-80
2021/09/10 08:54:31;;;;;;;14.93;13.33;;;18.50;99.90;;;;;;5036919;28;20175;-80
2021/09/10 08:57:09;;;;;;;15.13;13.47;;;18.50;99.90;;;;;;5039149;28;20221;-80
2021/09/10 08:59:34;;;;;;;14.73;13.10;;;18.60;99.90;;;;;;5037657;28;20185;-83
2021/09/10 09:02:00;;;;;;;14.20;12.80;;;18.60;99.90;;;;;;5039291;28;20178;-82
2021/09/10 09:04:37;;;;;;;14.87;13.40;;;18.60;99.90;;;;;;5039540;28;20265;-80
2021/09/10 09:07:07;;;;;;;14.10;12.60;;;18.70;99.90;;;;;;5038588;28;20190;-83
2021/09/10 09:09:47;;;;;;;14.07;12.57;;;18.70;99.90;;;;;;5038546;28;20253;-80
2021/09/10 09:12:21;;;;;;;16.17;12.50;;;18.80;99.90;;;;;;5037807;28;20249;-83
2021/09/10 09:14:47;;;;;;;15.27;11.73;;;18.80;99.90;;;;;;5039841;28;20197;-84
2021/09/10 09:19:40;;;;;;;13.47;11.83;;;18.90;99.90;;;;;;4984976;28;20216;-83
2021/09/10 09:22:06;;;;;;;15.57;12.17;;;18.90;99.90;;;;;;4998546;28;20180;-82
2021/09/10 09:24:35;;;;;;;15.70;12.50;;;18.80;99.90;;;;;;4999542;28;20168;-83
2021/09/10 09:27:09;;;;;;;14.53;11.33;;;18.90;99.90;;;;;;4999761;28;20283;-80
2021/09/10 09:29:49;;;;;;;13.23;11.07;;;18.90;99.90;;;;;;4990572;28;20202;-81
2021/09/10 09:32:27;;;;;;;12.03;10.67;;;18.90;99.90;;;;;;4988794;28;20658;-80
2021/09/10 09:34:53;;;;;;;11.47;10.27;;;18.90;99.90;;;;;;4984605;28;20200;-80
2021/09/10 09:37:24;;;;;;;14.03;10.10;;;19.00;99.90;;;;;;4997868;28;20269;-84
2021/09/10 09:40:02;;;;;;;13.43;10.77;;;19.00;99.90;;;;;;4981340;28;20182;-80
2021/09/10 09:42:39;;;;;;;11.40;10.20;;;19.20;99.90;;;;;;4998779;28;20179;-80
2021/09/10 09:45:46;;;;;;;;;;;;;;;;;;;;;
2021/09/10 09:48:12;;;;;;;10.40;9.50;;;19.20;99.90;;;;;;4947673;28;20271;-84
2021/09/10 09:50:42;;;;;;;11.00;9.93;;;19.30;99.90;;;;;;4980338;28;20266;-80
2021/09/10 09:53:31;;;;;;;10.80;9.70;;;19.30;99.90;;;;;;4999009;28;20184;-80
2021/09/10 09:55:56;;;;;;;11.53;10.40;;;19.40;99.90;;;;;;5023521;22;20329;-80
2021/09/10 09:58:22;;;;;;;11.57;10.37;;;19.50;99.90;;;;;;5048631;28;20201;-82
2021/09/10 10:00:48;;;;;;;11.80;10.67;;;19.50;99.90;;;;;;5056593;28;20245;-81
2021/09/10 10:03:18;;;;;;;10.60;9.57;;;19.50;99.90;;;;;;5057293;28;20568;-80
2021/09/10 10:06:01;;;;;;;10.77;9.87;;;19.60;99.90;;;;;;5056833;28;20189;-83
2021/09/10 10:09:01;;;;;;;10.93;10.03;;;19.60;99.90;;;;;;5051020;28;20190;-80
2021/09/10 10:11:39;;;;;;;10.83;9.83;;;19.60;99.90;;;;;;5034661;28;20609;-84
2021/09/10 10:14:28;;;;;;;11.47;10.33;;;19.60;99.90;;;;;;5058144;28;20189;-80
2021/09/10 10:16:53;;;;;;;11.27;10.37;;;19.60;99.90;;;;;;5065012;28;20212;-82
2021/09/10 10:19:36;;;;;;;11.30;10.23;;;19.70;99.90;;;;;;5064963;28;20178;-84
2021/09/10 10:22:07;;;;;;;10.93;9.83;;;19.80;99.90;;;;;;5057799;28;20178;-81
2021/09/10 10:24:57;;;;;;;11.00;10.03;;;19.80;99.90;;;;;;5058765;28;20170;-84
2021/09/10 10:27:40;;;;;;;11.27;10.20;;;19.80;99.90;;;;;;5058466;28;20201;-80
2021/09/10 10:30:49;;;;;;;10.17;9.17;;;19.90;99.90;;;;;;5047964;28;20188;-80
2021/09/10 10:33:48;;;;;;;10.90;10.10;;;19.90;99.90;;;;;;5044481;28;20272;-80
2021/09/10 10:36:52;;;;;;;11.10;10.20;;;19.90;99.90;;;;;;5048997;28;20722;-82
2021/09/10 10:39:26;;;;;;;11.03;9.80;;;20.00;99.90;;;;;;5015470;28;20266;-83
2021/09/10 10:41:57;;;;;;;9.60;8.80;;;20.00;99.90;;;;;;5016365;28;20205;-84
2021/09/10 10:44:34;;;;;;;10.07;9.17;;;20.00;99.90;;;;;;5046350;28;20196;-81
2021/09/10 10:47:12;;;;;;;10.47;9.47;;;20.00;99.90;;;;;;5053525;28;20672;-80
2021/09/10 10:49:43;;;;;;;11.17;10.07;;;20.10;99.90;;;;;;5047198;28;20169;-82
2021/09/10 10:52:38;;;;;;;10.63;9.63;;;20.20;99.90;;;;;;5057821;28;20177;-83
2021/09/10 10:55:18;;;;;;;10.73;9.73;;;20.30;99.90;;;;;;5055952;28;20292;-80
2021/09/10 10:57:50;;;;;;;9.20;8.50;;;20.30;99.90;;;;;;5056378;28;20218;-82
2021/09/10 11:00:28;;;;;;;9.23;8.33;;;20.30;99.90;;;;;;5056117;28;20197;-84
2021/09/10 11:03:18;;;;;;;8.63;7.83;;;20.30;99.90;;;;;;5056520;28;20213;-83
2021/09/10 11:05:46;;;;;;;9.33;8.43;;;20.30;99.90;;;;;;5059097;28;20197;-85
2021/09/10 11:08:16;;;;;;;8.87;8.17;;;20.40;99.90;;;;;;5067609;28;20201;-80
2021/09/10 11:10:44;;;;;;;9.47;8.57;;;20.40;99.90;;;;;;5062782;28;20178;-81
2021/09/10 11:13:25;;;;;;;;;;;;;;;;;;;;;
2021/09/10 11:15:51;;;;;;;9.67;8.80;;;20.50;99.90;;;;;;5105500;22;20238;-80
2021/09/10 11:22:07;;;;;;;8.97;8.27;;;20.50;99.90;;;;;;4981247;28;20180;-81
2021/09/10 11:24:32;;;;;;;9.10;8.40;;;20.50;99.90;;;;;;4977920;28;20211;-84
2021/09/10 11:26:58;;;;;;;10.27;9.07;;;20.50;99.90;;;;;;5016797;28;20684;-83
2021/09/10 11:29:44;;;;;;;9.03;8.17;;;20.50;99.90;;;;;;5021220;28;20182;-80
2021/09/10 11:32:26;;;;;;;8.70;7.80;;;20.50;99.90;;;;;;5060525;23;20720;-84
2021/09/10 11:34:53;;;;;;;9.40;8.70;;;20.40;99.90;;;;;;5040582;28;20265;-85
2021/09/10 11:37:32;;;;;;;8.43;7.67;;;20.40;99.90;;;;;;5029065;28;20611;-83
2021/09/10 11:40:00;;;;;;;9.67;8.63;;;20.40;99.90;;;;;;5051543;28;20174;-82
2021/09/10 11:42:34;;;;;;;8.97;8.27;;;20.40;99.90;;;;;;5054117;28;20202;-83
2021/09/10 11:45:07;;;;;;;10.00;9.00;;;20.50;99.90;;;;;;5043967;28;20663;-84
2021/09/10 11:47:33;;;;;;;8.57;7.97;;;20.50;99.90;;;;;;5055125;28;20162;-83
2021/09/10 11:50:08;;;;;;;9.47;8.73;;;20.50;99.90;;;;;;5036352;28;20178;-83
2021/09/10 11:52:39;;;;;;;8.37;7.67;;;20.50;99.90;;;;;;5022454;28;20185;-83
2021/09/10 11:55:09;;;;;;;9.57;8.60;;;20.50;99.90;;;;;;5035727;28;20190;-83
2021/09/10 11:57:35;;;;;;;9.30;8.60;;;20.50;99.90;;;;;;5020931;28;20202;-83
2021/09/10 12:00:01;;;;;;;9.30;8.50;;;20.50;99.90;;;;;;5055603;28;20178;-82
2021/09/10 12:02:27;;;;;;;9.50;8.70;;;20.50;99.90;;;;;;5043493;28;20190;-83
2021/09/10 12:04:57;;;;;;;8.90;8.00;;;20.50;99.90;;;;;;5048184;28;20185;-83
2021/09/10 12:07:28;;;;;;;10.17;9.37;;;20.50;99.90;;;;;;5032042;28;20183;-83
2021/09/10 12:09:54;;;;;;;9.17;8.47;;;20.40;99.90;;;;;;5056367;28;20713;-83
2021/09/10 12:12:23;;;;;;;10.10;8.50;;;20.40;99.90;;;;;;5048047;28;20278;-84
2021/09/10 12:15:02;;;;;;;9.30;8.40;;;20.50;99.90;;;;;;5060928;28;20201;-82
2021/09/10 12:17:39;;;;;;;9.70;8.80;;;20.40;99.90;;;;;;5046915;28;20637;-85
2021/09/10 12:20:12;;;;;;;9.70;8.70;;;20.40;99.90;;;;;;5037998;28;20158;-83
2021/09/10 12:22:49;;;;;;;9.87;9.03;;;20.50;99.90;;;;;;5044273;28;20325;-84
2021/09/10 12:25:33;;;;;;;10.03;9.03;;;20.50;99.90;;;;;;5054622;28;20192;-84
2021/09/10 12:28:10;;;;;;;12.27;8.83;;;20.40;99.90;;;;;;5032915;28;20165;-84
2021/09/10 12:30:40;;;;;;;9.53;8.83;;;20.50;99.90;;;;;;5038241;28;20169;-84
2021/09/10 12:33:11;;;;;;;9.00;8.30;;;20.40;99.90;;;;;;5029009;28;20178;-83
2021/09/10 12:35:38;;;;;;;10.43;9.43;;;20.40;99.90;;;;;;5044760;28;20198;-84
2021/09/10 12:38:10;;;;;;;10.43;9.43;;;20.40;99.90;;;;;;5058860;28;20176;-83
2021/09/10 12:40:38;;;;;;;10.07;9.27;;;20.50;99.90;;;;;;5027636;28;20198;-84
2021/09/10 12:43:07;;;;;;;11.43;8.93;;;20.50;99.90;;;;;;5033827;28;20178;-84
2021/09/10 12:45:34;;;;;;;8.70;8.10;;;20.50;99.90;;;;;;5050928;28;20170;-83
2021/09/10 12:48:00;;;;;;;10.87;9.87;;;20.50;99.90;;;;;;5037099;28;20190;-84
2021/09/10 12:50:27;;;;;;;9.67;8.63;;;20.50;99.90;;;;;;5032285;28;20205;-83
2021/09/10 12:52:53;;;;;;;9.30;8.60;;;20.60;99.90;;;;;;5039463;28;20266;-83
2021/09/10 12:55:19;;;;;;;9.80;8.83;;;20.60;99.90;;;;;;5060069;28;20602;-83
2021/09/10 12:57:45;;;;;;;10.50;9.17;;;20.60;99.90;;;;;;5028687;28;20240;-84
2021/09/10 13:00:12;;;;;;;11.20;9.87;;;20.60;99.90;;;;;;5060393;28;20644;-84
2021/09/10 13:02:41;;;;;;;11.53;10.23;;;20.60;99.90;;;;;;5052174;28;20186;-84
2021/09/10 13:05:13;;;;;;;11.47;10.20;;;20.60;99.90;;;;;;5036332;28;20177;-84
2021/09/10 13:07:40;;;;;;;8.83;8.03;;;20.60;99.90;;;;;;5043185;28;20174;-84
2021/09/10 13:10:07;;;;;;;10.50;8.57;;;20.70;99.90;;;;;;5046387;28;20178;-84
2021/09/10 13:12:33;;;;;;;9.30;8.53;;;20.70;99.90;;;;;;5028011;28;20198;-83
2021/09/10 13:14:59;;;;;;;9.07;8.30;;;20.70;99.90;;;;;;5026983;28;20691;-83
2021/09/10 13:17:24;;;;;;;9.87;8.97;;;20.70;99.90;;;;;;5045480;28;20175;-83
2021/09/10 13:19:53;;;;;;;9.23;8.37;;;20.70;99.90;;;;;;5045775;28;20180;-84
2021/09/10 13:22:19;;;;;;;9.17;8.47;;;20.80;99.90;;;;;;5041455;28;20251;-83
2021/09/10 13:24:45;;;;;;;9.37;8.50;;;20.90;99.90;;;;;;5027270;28;20202;-83
2021/09/10 13:27:14;;;;;;;10.47;9.40;;;20.90;99.90;;;;;;5056522;28;20186;-83
2021/09/10 13:29:40;;;;;;;10.57;9.50;;;20.90;99.90;;;;;;5024586;28;20178;-84
2021/09/10 13:32:07;;;;;;;9.63;8.83;;;21.00;99.90;;;;;;5037034;28;20221;-84
2021/09/10 13:34:33;;;;;;;10.50;9.60;;;21.00;99.90;;;;;;5057505;28;20652;-84
2021/09/10 13:36:59;;;;;;;15.23;9.10;;;21.10;99.90;;;;;;5046010;28;20685;-83
2021/09/10 13:39:25;;;;;;;9.27;8.27;;;21.20;99.90;;;;;;5060134;28;20181;-83